ALK154 OPLA-VCBI
Flight info
| Callsign | ALK154 |
|---|---|
| Flight time | N/A |
| Altitude | 39000 |
| Route | SULOM A466 ASARI J24 MUPID DCT CHI DCT AKRIB/N0464F400 DCT IBANI/N0462F390 Q23 BULDI W19 BPL/N0384F250 J3 HIA/N0461F390 W20 MMV/N0460F400 A465 SAGOR SAGOR1A |
| Aircraft | A333/H-SDE3GHIJ2J3J5M1RVWXY/LB2D1 |
Departure
| Time | N/A |
|---|---|
| Airport | Allama Iqbal International Airport (OPLA) |
Arrival
| Time | 2026-04-24 21:38 |
|---|---|
| Airport | Bandaranaike International Colombo Airport (VCBI) |
| Time | Latitude | Longitude | Altitude | Speed | Heading |
|---|---|---|---|---|---|
| 2026-04-24 18:54 | 26.60335 | 76.30940 | 38788 ft | 477 kts | 168° |
| 2026-04-24 18:55 | 26.50689 | 76.33444 | 38787 ft | 476 kts | 168° |
| 2026-04-24 18:56 | 26.44227 | 76.35119 | 38794 ft | 476 kts | 168° |
| 2026-04-24 18:56 | 26.37773 | 76.36789 | 38797 ft | 477 kts | 168° |
| 2026-04-24 18:57 | 26.31312 | 76.38460 | 38795 ft | 477 kts | 168° |
| 2026-04-24 18:57 | 26.24896 | 76.40117 | 38799 ft | 477 kts | 168° |
| 2026-04-24 18:58 | 26.18430 | 76.41785 | 38794 ft | 477 kts | 169° |
| 2026-04-24 18:58 | 26.11972 | 76.43450 | 38802 ft | 477 kts | 168° |
| 2026-04-24 18:59 | 26.05512 | 76.45112 | 38804 ft | 477 kts | 169° |
| 2026-04-24 18:59 | 25.99092 | 76.46763 | 38797 ft | 477 kts | 168° |
| 2026-04-24 19:00 | 25.92633 | 76.48422 | 38793 ft | 477 kts | 169° |
| 2026-04-24 19:00 | 25.86168 | 76.50081 | 38798 ft | 477 kts | 169° |
| 2026-04-24 19:01 | 25.79702 | 76.51738 | 38796 ft | 477 kts | 169° |
| 2026-04-24 19:01 | 25.73281 | 76.53381 | 38795 ft | 477 kts | 169° |
| 2026-04-24 19:02 | 25.67867 | 76.54765 | 38797 ft | 477 kts | 169° |
| 2026-04-24 19:02 | 25.60357 | 76.56684 | 38793 ft | 477 kts | 169° |
| 2026-04-24 19:03 | 25.53895 | 76.58332 | 38792 ft | 476 kts | 169° |
| 2026-04-24 19:03 | 25.47479 | 76.59967 | 38797 ft | 476 kts | 169° |
| 2026-04-24 19:04 | 25.41017 | 76.61612 | 38808 ft | 476 kts | 169° |
| 2026-04-24 19:04 | 25.34556 | 76.63255 | 38799 ft | 476 kts | 169° |
| 2026-04-24 19:05 | 25.28098 | 76.64895 | 38801 ft | 475 kts | 169° |
| 2026-04-24 19:05 | 25.21657 | 76.66530 | 38810 ft | 475 kts | 169° |
| 2026-04-24 19:06 | 25.15259 | 76.68151 | 38812 ft | 475 kts | 169° |
| 2026-04-24 19:06 | 25.08818 | 76.69782 | 38814 ft | 475 kts | 169° |
| 2026-04-24 19:07 | 25.02379 | 76.71410 | 38813 ft | 475 kts | 170° |
| 2026-04-24 19:07 | 24.97099 | 76.73085 | 38814 ft | 475 kts | 165° |
| 2026-04-24 19:08 | 24.89774 | 76.75675 | 38816 ft | 476 kts | 165° |
| 2026-04-24 19:08 | 24.83485 | 76.77947 | 38813 ft | 476 kts | 165° |
| 2026-04-24 19:09 | 24.77198 | 76.80213 | 38821 ft | 476 kts | 165° |
| 2026-04-24 19:09 | 24.70904 | 76.82471 | 38820 ft | 476 kts | 165° |
| 2026-04-24 19:10 | 24.64611 | 76.84723 | 38820 ft | 476 kts | 165° |
| 2026-04-24 19:10 | 24.58359 | 76.86958 | 38818 ft | 476 kts | 165° |
| 2026-04-24 19:11 | 24.52069 | 76.89204 | 38820 ft | 475 kts | 165° |
| 2026-04-24 19:11 | 24.45785 | 76.91445 | 38819 ft | 475 kts | 165° |
| 2026-04-24 19:12 | 24.39511 | 76.93688 | 38817 ft | 474 kts | 165° |
| 2026-04-24 19:12 | 24.33294 | 76.95938 | 38821 ft | 474 kts | 165° |
| 2026-04-24 19:13 | 24.28094 | 76.97826 | 38819 ft | 473 kts | 165° |
| 2026-04-24 19:13 | 24.20788 | 77.00473 | 38815 ft | 473 kts | 165° |
| 2026-04-24 19:14 | 24.14530 | 77.02735 | 38812 ft | 473 kts | 165° |
| 2026-04-24 19:14 | 24.08322 | 77.04977 | 38810 ft | 473 kts | 165° |
| 2026-04-24 19:15 | 24.02080 | 77.07228 | 38810 ft | 472 kts | 165° |
| 2026-04-24 19:15 | 23.95839 | 77.09477 | 38809 ft | 472 kts | 165° |
| 2026-04-24 19:16 | 23.86522 | 77.12830 | 38810 ft | 472 kts | 165° |
| 2026-04-24 19:16 | 23.80283 | 77.15072 | 38810 ft | 471 kts | 166° |
| 2026-04-24 19:17 | 23.74060 | 77.17308 | 38810 ft | 470 kts | 166° |
| 2026-04-24 19:17 | 23.67845 | 77.19536 | 38808 ft | 470 kts | 166° |
| 2026-04-24 19:18 | 23.61627 | 77.21764 | 38808 ft | 470 kts | 166° |
| 2026-04-24 19:18 | 23.55455 | 77.23973 | 38810 ft | 470 kts | 166° |
| 2026-04-24 19:19 | 23.49254 | 77.26192 | 38809 ft | 468 kts | 167° |
| 2026-04-24 19:19 | 23.43083 | 77.28398 | 38807 ft | 466 kts | 167° |
| 2026-04-24 19:20 | 23.36923 | 77.30596 | 38808 ft | 466 kts | 167° |
| 2026-04-24 19:20 | 23.30759 | 77.32792 | 38809 ft | 466 kts | 167° |
| 2026-04-24 19:21 | 23.24552 | 77.34401 | 38809 ft | 461 kts | 174° |
| 2026-04-24 19:21 | 23.18247 | 77.35695 | 38810 ft | 459 kts | 175° |
| 2026-04-24 19:22 | 23.11968 | 77.36919 | 38808 ft | 458 kts | 175° |
| 2026-04-24 19:22 | 23.05694 | 77.38141 | 38800 ft | 458 kts | 175° |
| 2026-04-24 19:23 | 22.99452 | 77.39366 | 38796 ft | 459 kts | 175° |
| 2026-04-24 19:23 | 22.93169 | 77.40604 | 38800 ft | 459 kts | 175° |
| 2026-04-24 19:24 | 22.86892 | 77.41841 | 38808 ft | 458 kts | 175° |
| 2026-04-24 19:24 | 22.80631 | 77.43074 | 38805 ft | 457 kts | 175° |
| 2026-04-24 19:25 | 22.74373 | 77.44303 | 38804 ft | 457 kts | 175° |
| 2026-04-24 19:25 | 22.68161 | 77.45523 | 38806 ft | 457 kts | 175° |
| 2026-04-24 19:26 | 22.61901 | 77.46750 | 38800 ft | 457 kts | 175° |
| 2026-04-24 19:26 | 22.55651 | 77.47976 | 38796 ft | 455 kts | 175° |
| 2026-04-24 19:27 | 22.49432 | 77.49195 | 38797 ft | 454 kts | 175° |
| 2026-04-24 19:27 | 22.43218 | 77.50410 | 38801 ft | 454 kts | 175° |
| 2026-04-24 19:28 | 22.37041 | 77.51616 | 38801 ft | 454 kts | 175° |
| 2026-04-24 19:28 | 22.30822 | 77.52831 | 38809 ft | 454 kts | 175° |
| 2026-04-24 19:29 | 22.21515 | 77.54648 | 38813 ft | 452 kts | 175° |
| 2026-04-24 19:30 | 22.15372 | 77.55845 | 38812 ft | 451 kts | 175° |
| 2026-04-24 19:30 | 22.09196 | 77.57044 | 38816 ft | 451 kts | 175° |
| 2026-04-24 19:31 | 22.03012 | 77.58236 | 38816 ft | 452 kts | 175° |
| 2026-04-24 19:31 | 21.96824 | 77.59427 | 38813 ft | 451 kts | 176° |
| 2026-04-24 19:32 | 21.90696 | 77.60607 | 38824 ft | 449 kts | 176° |
| 2026-04-24 19:32 | 21.84551 | 77.61789 | 38823 ft | 449 kts | 176° |
| 2026-04-24 19:33 | 21.78404 | 77.62969 | 38822 ft | 449 kts | 176° |
| 2026-04-24 19:33 | 21.72255 | 77.64150 | 38824 ft | 449 kts | 176° |
| 2026-04-24 19:34 | 21.66103 | 77.65331 | 38823 ft | 449 kts | 176° |
| 2026-04-24 19:34 | 21.59993 | 77.66502 | 38818 ft | 449 kts | 176° |
| 2026-04-24 19:35 | 21.53841 | 77.67681 | 38815 ft | 449 kts | 176° |
| 2026-04-24 19:35 | 21.47692 | 77.68884 | 38816 ft | 450 kts | 175° |
| 2026-04-24 19:36 | 21.41546 | 77.70138 | 38815 ft | 450 kts | 175° |
| 2026-04-24 19:36 | 21.35438 | 77.71390 | 38815 ft | 450 kts | 176° |
| 2026-04-24 19:37 | 21.29305 | 77.72645 | 38808 ft | 447 kts | 176° |
| 2026-04-24 19:37 | 21.23212 | 77.73885 | 38806 ft | 445 kts | 176° |
| 2026-04-24 19:38 | 21.17122 | 77.75120 | 38803 ft | 445 kts | 176° |
| 2026-04-24 19:38 | 21.11075 | 77.76345 | 38797 ft | 445 kts | 176° |
| 2026-04-24 19:39 | 21.04982 | 77.77580 | 38793 ft | 446 kts | 176° |
| 2026-04-24 19:39 | 20.98894 | 77.78814 | 38787 ft | 444 kts | 177° |
| 2026-04-24 19:40 | 20.92837 | 77.80042 | 38785 ft | 442 kts | 177° |
| 2026-04-24 19:40 | 20.86794 | 77.81264 | 38786 ft | 442 kts | 177° |
| 2026-04-24 19:41 | 20.80795 | 77.82474 | 38785 ft | 442 kts | 177° |
| 2026-04-24 19:41 | 20.74753 | 77.83693 | 38785 ft | 442 kts | 177° |
| 2026-04-24 19:42 | 20.68707 | 77.84911 | 38779 ft | 442 kts | 178° |
| 2026-04-24 19:42 | 20.62675 | 77.86093 | 38785 ft | 440 kts | 178° |
| 2026-04-24 19:43 | 20.56654 | 77.87252 | 38785 ft | 440 kts | 178° |
| 2026-04-24 19:43 | 20.50674 | 77.88402 | 38786 ft | 440 kts | 178° |
| 2026-04-24 19:44 | 20.44653 | 77.89563 | 38787 ft | 440 kts | 178° |
| 2026-04-24 19:44 | 20.38635 | 77.90724 | 38788 ft | 440 kts | 178° |
| 2026-04-24 19:45 | 20.32623 | 77.91885 | 38785 ft | 439 kts | 178° |
| 2026-04-24 19:45 | 20.26655 | 77.93035 | 38788 ft | 438 kts | 178° |
| 2026-04-24 19:46 | 20.20652 | 77.94191 | 38787 ft | 438 kts | 178° |
| 2026-04-24 19:46 | 20.14647 | 77.95346 | 38793 ft | 438 kts | 178° |
| 2026-04-24 19:47 | 20.08646 | 77.96499 | 38786 ft | 438 kts | 178° |
| 2026-04-24 19:47 | 20.02646 | 77.97652 | 38786 ft | 438 kts | 178° |
| 2026-04-24 19:48 | 19.96689 | 77.98795 | 38791 ft | 438 kts | 178° |
| 2026-04-24 19:48 | 19.87690 | 78.00521 | 38793 ft | 438 kts | 178° |
| 2026-04-24 19:49 | 19.75690 | 78.02819 | 38798 ft | 438 kts | 178° |
| 2026-04-24 19:50 | 19.63757 | 78.05102 | 38807 ft | 436 kts | 177° |
| 2026-04-24 19:51 | 19.54802 | 78.06811 | 38805 ft | 436 kts | 177° |
| 2026-04-24 19:52 | 19.45844 | 78.08519 | 38809 ft | 436 kts | 177° |
| 2026-04-24 19:52 | 19.39911 | 78.09650 | 38807 ft | 436 kts | 177° |
| 2026-04-24 19:53 | 19.33935 | 78.10787 | 38813 ft | 436 kts | 177° |
| 2026-04-24 19:54 | 19.24981 | 78.12482 | 38813 ft | 435 kts | 178° |
| 2026-04-24 19:54 | 19.19042 | 78.13395 | 38818 ft | 433 kts | 180° |
| 2026-04-24 19:55 | 19.15042 | 78.13935 | 38814 ft | 433 kts | 180° |
| 2026-04-24 19:55 | 19.07080 | 78.15004 | 38807 ft | 433 kts | 180° |
| 2026-04-24 19:56 | 19.01096 | 78.15829 | 38815 ft | 434 kts | 179° |
| 2026-04-24 19:56 | 18.95145 | 78.16659 | 38817 ft | 434 kts | 179° |
| 2026-04-24 19:57 | 18.89157 | 78.17496 | 38816 ft | 434 kts | 179° |
| 2026-04-24 19:57 | 18.83173 | 78.18331 | 38824 ft | 434 kts | 179° |
| 2026-04-24 19:58 | 18.77182 | 78.19165 | 38827 ft | 434 kts | 179° |
| 2026-04-24 19:58 | 18.71191 | 78.19998 | 38828 ft | 434 kts | 179° |
| 2026-04-24 19:59 | 18.65242 | 78.20825 | 38833 ft | 434 kts | 179° |
| 2026-04-24 19:59 | 18.59249 | 78.21657 | 38846 ft | 434 kts | 179° |
| 2026-04-24 20:00 | 18.53255 | 78.22490 | 38845 ft | 434 kts | 179° |
| 2026-04-24 20:00 | 18.47263 | 78.23321 | 38862 ft | 434 kts | 179° |
| 2026-04-24 20:01 | 18.41272 | 78.24151 | 38861 ft | 435 kts | 179° |
| 2026-04-24 20:01 | 18.35317 | 78.24976 | 38859 ft | 434 kts | 179° |
| 2026-04-24 20:02 | 18.30333 | 78.25667 | 38875 ft | 434 kts | 179° |
| 2026-04-24 20:02 | 18.23329 | 78.26636 | 38876 ft | 434 kts | 179° |
| 2026-04-24 20:03 | 18.17332 | 78.27465 | 38875 ft | 434 kts | 179° |
| 2026-04-24 20:03 | 18.11395 | 78.28286 | 38875 ft | 432 kts | 179° |
| 2026-04-24 20:04 | 18.05459 | 78.29107 | 38872 ft | 429 kts | 179° |
| 2026-04-24 20:04 | 17.99536 | 78.29925 | 38877 ft | 429 kts | 179° |
| 2026-04-24 20:05 | 17.93615 | 78.30750 | 38883 ft | 429 kts | 179° |
| 2026-04-24 20:05 | 17.87736 | 78.31570 | 38880 ft | 429 kts | 179° |
| 2026-04-24 20:06 | 17.81814 | 78.32397 | 38880 ft | 429 kts | 179° |
| 2026-04-24 20:06 | 17.75895 | 78.33222 | 38886 ft | 429 kts | 179° |
| 2026-04-24 20:07 | 17.70975 | 78.33907 | 38883 ft | 429 kts | 179° |
| 2026-04-24 20:07 | 17.64104 | 78.34864 | 38889 ft | 428 kts | 179° |
| 2026-04-24 20:08 | 17.58198 | 78.35685 | 38886 ft | 428 kts | 179° |
| 2026-04-24 20:08 | 17.52289 | 78.36506 | 38857 ft | 428 kts | 179° |
| 2026-04-24 20:09 | 17.46381 | 78.37327 | 38861 ft | 428 kts | 179° |
| 2026-04-24 20:09 | 17.40508 | 78.38142 | 38856 ft | 428 kts | 179° |
| 2026-04-24 20:10 | 17.34604 | 78.38961 | 38879 ft | 428 kts | 178° |
| 2026-04-24 20:10 | 17.28703 | 78.39779 | 38885 ft | 428 kts | 178° |
| 2026-04-24 20:11 | 17.22825 | 78.40891 | 38884 ft | 435 kts | 169° |
| 2026-04-24 20:11 | 17.17163 | 78.43145 | 38891 ft | 440 kts | 164° |
| 2026-04-24 20:12 | 17.11531 | 78.45693 | 38892 ft | 441 kts | 163° |
| 2026-04-24 20:12 | 17.06860 | 78.47851 | 38892 ft | 441 kts | 163° |
| 2026-04-24 20:13 | 17.00285 | 78.50864 | 38881 ft | 442 kts | 163° |
| 2026-04-24 20:13 | 16.95597 | 78.52994 | 38873 ft | 442 kts | 163° |
| 2026-04-24 20:14 | 16.89049 | 78.55959 | 38869 ft | 442 kts | 163° |
| 2026-04-24 20:14 | 16.83410 | 78.58510 | 38862 ft | 442 kts | 163° |
| 2026-04-24 20:15 | 16.78722 | 78.60630 | 38861 ft | 442 kts | 163° |
| 2026-04-24 20:15 | 16.73083 | 78.63179 | 38850 ft | 442 kts | 163° |
| 2026-04-24 20:16 | 16.66539 | 78.66137 | 38855 ft | 440 kts | 163° |
| 2026-04-24 20:16 | 16.60922 | 78.68673 | 38846 ft | 440 kts | 163° |
| 2026-04-24 20:17 | 16.56247 | 78.70783 | 38842 ft | 441 kts | 163° |
| 2026-04-24 20:17 | 16.47801 | 78.74592 | 38843 ft | 441 kts | 163° |
| 2026-04-24 20:18 | 16.41256 | 78.77543 | 38846 ft | 441 kts | 163° |
| 2026-04-24 20:18 | 16.36572 | 78.79653 | 38843 ft | 441 kts | 163° |
| 2026-04-24 20:19 | 16.30943 | 78.82186 | 38842 ft | 441 kts | 163° |
| 2026-04-24 20:19 | 16.24400 | 78.85130 | 38838 ft | 441 kts | 163° |
| 2026-04-24 20:20 | 16.19687 | 78.87249 | 38837 ft | 441 kts | 163° |
| 2026-04-24 20:20 | 16.14095 | 78.89762 | 38836 ft | 441 kts | 163° |
| 2026-04-24 20:21 | 16.08464 | 78.92290 | 38834 ft | 441 kts | 163° |
| 2026-04-24 20:21 | 16.02837 | 78.94815 | 38820 ft | 441 kts | 163° |
| 2026-04-24 20:22 | 15.97208 | 78.97337 | 38825 ft | 440 kts | 163° |
| 2026-04-24 20:22 | 15.91577 | 78.99860 | 38812 ft | 440 kts | 163° |
| 2026-04-24 20:23 | 15.85987 | 79.02364 | 38808 ft | 440 kts | 163° |
| 2026-04-24 20:23 | 15.80361 | 79.04883 | 38811 ft | 440 kts | 163° |
| 2026-04-24 20:24 | 15.74734 | 79.07402 | 38806 ft | 441 kts | 163° |
| 2026-04-24 20:24 | 15.69082 | 79.09927 | 38797 ft | 443 kts | 163° |
| 2026-04-24 20:25 | 15.63457 | 79.12441 | 38797 ft | 445 kts | 163° |
| 2026-04-24 20:25 | 15.57704 | 79.15005 | 38789 ft | 455 kts | 163° |
| 2026-04-24 20:26 | 15.51831 | 79.17623 | 38789 ft | 464 kts | 162° |
| 2026-04-24 20:26 | 15.45844 | 79.20296 | 38786 ft | 473 kts | 162° |
| 2026-04-24 20:27 | 15.39821 | 79.23006 | 38787 ft | 476 kts | 162° |
| 2026-04-24 20:27 | 15.33766 | 79.25735 | 38782 ft | 474 kts | 162° |
| 2026-04-24 20:28 | 15.27723 | 79.28452 | 38778 ft | 473 kts | 162° |
| 2026-04-24 20:28 | 15.21685 | 79.31162 | 38774 ft | 473 kts | 162° |
| 2026-04-24 20:29 | 15.15682 | 79.33853 | 38774 ft | 473 kts | 162° |
| 2026-04-24 20:29 | 15.09646 | 79.36558 | 38768 ft | 473 kts | 162° |
| 2026-04-24 20:30 | 15.03606 | 79.39264 | 38768 ft | 473 kts | 162° |
| 2026-04-24 20:30 | 14.97562 | 79.41958 | 38769 ft | 472 kts | 163° |
| 2026-04-24 20:31 | 14.91486 | 79.44349 | 38768 ft | 470 kts | 166° |
| 2026-04-24 20:31 | 14.85329 | 79.46595 | 38769 ft | 469 kts | 166° |
| 2026-04-24 20:32 | 14.79173 | 79.48844 | 38768 ft | 469 kts | 166° |
| 2026-04-24 20:32 | 14.73065 | 79.51105 | 38768 ft | 469 kts | 166° |
| 2026-04-24 20:33 | 14.66919 | 79.53393 | 38766 ft | 469 kts | 166° |
| 2026-04-24 20:33 | 14.60785 | 79.55678 | 38768 ft | 469 kts | 166° |
| 2026-04-24 20:34 | 14.54652 | 79.57960 | 38771 ft | 468 kts | 166° |
| 2026-04-24 20:34 | 14.48514 | 79.60241 | 38769 ft | 469 kts | 166° |
| 2026-04-24 20:35 | 14.42426 | 79.62502 | 38769 ft | 469 kts | 166° |
| 2026-04-24 20:35 | 14.36288 | 79.64781 | 38771 ft | 468 kts | 166° |
| 2026-04-24 20:36 | 14.30160 | 79.67055 | 38770 ft | 468 kts | 166° |
| 2026-04-24 20:36 | 14.24039 | 79.69325 | 38771 ft | 467 kts | 166° |
| 2026-04-24 20:37 | 14.17964 | 79.71576 | 38771 ft | 467 kts | 166° |
| 2026-04-24 20:37 | 14.11849 | 79.73841 | 38774 ft | 467 kts | 166° |
| 2026-04-24 20:38 | 14.05727 | 79.76107 | 38774 ft | 468 kts | 166° |
| 2026-04-24 20:38 | 13.99607 | 79.78371 | 38771 ft | 467 kts | 166° |
| 2026-04-24 20:39 | 13.93524 | 79.80620 | 38774 ft | 467 kts | 166° |
| 2026-04-24 20:39 | 13.87398 | 79.82884 | 38777 ft | 468 kts | 166° |
| 2026-04-24 20:40 | 13.81276 | 79.85145 | 38780 ft | 468 kts | 166° |
| 2026-04-24 20:40 | 13.75191 | 79.87391 | 38782 ft | 468 kts | 166° |
| 2026-04-24 20:41 | 13.69065 | 79.89651 | 38782 ft | 468 kts | 166° |
| 2026-04-24 20:41 | 13.62938 | 79.91910 | 38782 ft | 468 kts | 166° |
| 2026-04-24 20:42 | 13.56813 | 79.94167 | 38786 ft | 468 kts | 166° |
| 2026-04-24 20:42 | 13.50681 | 79.96425 | 38785 ft | 468 kts | 166° |
| 2026-04-24 20:43 | 13.44593 | 79.98666 | 38787 ft | 468 kts | 166° |
| 2026-04-24 20:43 | 13.38458 | 80.00924 | 38783 ft | 468 kts | 166° |
| 2026-04-24 20:44 | 13.32329 | 80.03178 | 38786 ft | 468 kts | 166° |
| 2026-04-24 20:44 | 13.26236 | 80.05416 | 38782 ft | 468 kts | 166° |
| 2026-04-24 20:45 | 13.20098 | 80.07671 | 38779 ft | 469 kts | 166° |
| 2026-04-24 20:45 | 13.13956 | 80.09926 | 38777 ft | 469 kts | 166° |
| 2026-04-24 20:46 | 13.07817 | 80.12179 | 38772 ft | 469 kts | 166° |
| 2026-04-24 20:46 | 13.01667 | 80.14395 | 38772 ft | 466 kts | 169° |
| 2026-04-24 20:47 | 12.95396 | 80.15314 | 38777 ft | 455 kts | 183° |
| 2026-04-24 20:47 | 12.89070 | 80.15247 | 38775 ft | 454 kts | 186° |
| 2026-04-24 20:48 | 12.82753 | 80.14990 | 38780 ft | 454 kts | 186° |
| 2026-04-24 20:48 | 12.76438 | 80.14725 | 38782 ft | 454 kts | 186° |
| 2026-04-24 20:49 | 12.70122 | 80.14485 | 38789 ft | 454 kts | 186° |
| 2026-04-24 20:49 | 12.63842 | 80.14262 | 38793 ft | 454 kts | 186° |
| 2026-04-24 20:50 | 12.57522 | 80.14040 | 38795 ft | 455 kts | 186° |
| 2026-04-24 20:50 | 12.51200 | 80.13817 | 38799 ft | 455 kts | 186° |
| 2026-04-24 20:51 | 12.44876 | 80.13594 | 38799 ft | 455 kts | 186° |
| 2026-04-24 20:51 | 12.38594 | 80.13372 | 38799 ft | 455 kts | 186° |
| 2026-04-24 20:52 | 12.32270 | 80.13148 | 38799 ft | 455 kts | 186° |
| 2026-04-24 20:52 | 12.25943 | 80.12925 | 38802 ft | 455 kts | 186° |
| 2026-04-24 20:53 | 12.19617 | 80.12702 | 38801 ft | 455 kts | 185° |
| 2026-04-24 20:53 | 12.13329 | 80.12480 | 38804 ft | 456 kts | 185° |
| 2026-04-24 20:54 | 12.06988 | 80.12256 | 38804 ft | 456 kts | 185° |
| 2026-04-24 20:54 | 12.00656 | 80.12033 | 38802 ft | 456 kts | 185° |
| 2026-04-24 20:55 | 11.94315 | 80.11810 | 38801 ft | 456 kts | 185° |
| 2026-04-24 20:55 | 11.88022 | 80.11589 | 38804 ft | 456 kts | 185° |
| 2026-04-24 20:56 | 11.81671 | 80.11410 | 38805 ft | 459 kts | 184° |
| 2026-04-24 20:56 | 11.75260 | 80.11291 | 38804 ft | 461 kts | 184° |
| 2026-04-24 20:57 | 11.68837 | 80.11179 | 38804 ft | 462 kts | 184° |
| 2026-04-24 20:57 | 11.62458 | 80.11062 | 38801 ft | 462 kts | 184° |
| 2026-04-24 20:58 | 11.56039 | 80.10939 | 38801 ft | 461 kts | 184° |
| 2026-04-24 20:58 | 11.49615 | 80.10815 | 38804 ft | 462 kts | 184° |
| 2026-04-24 20:59 | 11.43193 | 80.10691 | 38804 ft | 462 kts | 184° |
| 2026-04-24 20:59 | 11.36772 | 80.10567 | 38804 ft | 462 kts | 184° |
| 2026-04-24 21:00 | 11.30392 | 80.10444 | 38804 ft | 462 kts | 184° |
| 2026-04-24 21:00 | 11.23969 | 80.10321 | 38804 ft | 462 kts | 184° |
| 2026-04-24 21:01 | 11.17544 | 80.10197 | 38804 ft | 462 kts | 184° |
| 2026-04-24 21:01 | 11.11102 | 80.10073 | 38808 ft | 467 kts | 183° |
| 2026-04-24 21:02 | 11.04552 | 80.09945 | 38803 ft | 475 kts | 183° |
| 2026-04-24 21:02 | 10.97993 | 80.09820 | 38804 ft | 474 kts | 183° |
| 2026-04-24 21:03 | 10.91397 | 80.09695 | 38804 ft | 474 kts | 183° |
| 2026-04-24 21:03 | 10.84810 | 80.09569 | 38807 ft | 474 kts | 183° |
| 2026-04-24 21:04 | 10.78265 | 80.09444 | 38803 ft | 473 kts | 183° |
| 2026-04-24 21:04 | 10.71678 | 80.09321 | 38804 ft | 472 kts | 184° |
| 2026-04-24 21:05 | 10.65127 | 80.09214 | 38805 ft | 470 kts | 184° |
| 2026-04-24 21:05 | 10.58627 | 80.09109 | 38804 ft | 470 kts | 184° |
| 2026-04-24 21:06 | 10.52081 | 80.09004 | 38804 ft | 470 kts | 184° |
| 2026-04-24 21:06 | 10.45662 | 80.08901 | 38807 ft | 470 kts | 184° |
| 2026-04-24 21:07 | 10.39047 | 80.08795 | 38809 ft | 465 kts | 184° |
| 2026-04-24 21:07 | 10.32636 | 80.08692 | 38809 ft | 463 kts | 184° |
| 2026-04-24 21:08 | 10.26201 | 80.08588 | 38809 ft | 461 kts | 184° |
| 2026-04-24 21:08 | 10.19789 | 80.08485 | 38806 ft | 460 kts | 184° |
| 2026-04-24 21:09 | 10.13386 | 80.08382 | 38807 ft | 460 kts | 184° |
| 2026-04-24 21:09 | 10.06977 | 80.08279 | 38808 ft | 461 kts | 184° |
| 2026-04-24 21:10 | 10.00608 | 80.08176 | 38810 ft | 461 kts | 183° |
| 2026-04-24 21:10 | 9.94192 | 80.08056 | 38813 ft | 461 kts | 183° |
| 2026-04-24 21:11 | 9.87778 | 80.07932 | 38813 ft | 461 kts | 183° |
| 2026-04-24 21:11 | 9.81361 | 80.07808 | 38815 ft | 461 kts | 183° |
| 2026-04-24 21:12 | 9.74990 | 80.07685 | 38816 ft | 461 kts | 183° |
| 2026-04-24 21:12 | 9.68577 | 80.07562 | 38778 ft | 460 kts | 183° |
| 2026-04-24 21:13 | 9.65389 | 80.07501 | 38563 ft | 454 kts | 183° |
| 2026-04-24 21:13 | 9.62261 | 80.07442 | 38317 ft | 446 kts | 183° |
| 2026-04-24 21:13 | 9.59186 | 80.07384 | 38055 ft | 438 kts | 183° |
| 2026-04-24 21:13 | 9.56156 | 80.07326 | 37801 ft | 434 kts | 183° |
| 2026-04-24 21:14 | 9.53131 | 80.07267 | 37535 ft | 436 kts | 183° |
| 2026-04-24 21:14 | 9.50100 | 80.07208 | 37249 ft | 434 kts | 183° |
| 2026-04-24 21:14 | 9.47130 | 80.07151 | 36819 ft | 432 kts | 182° |
| 2026-04-24 21:14 | 9.44126 | 80.07093 | 36306 ft | 432 kts | 182° |
| 2026-04-24 21:15 | 9.41116 | 80.07035 | 35789 ft | 433 kts | 182° |
| 2026-04-24 21:15 | 9.38095 | 80.06977 | 35217 ft | 435 kts | 182° |
| 2026-04-24 21:15 | 9.35063 | 80.06919 | 34645 ft | 437 kts | 182° |
| 2026-04-24 21:15 | 9.32009 | 80.06860 | 34044 ft | 440 kts | 182° |
| 2026-04-24 21:16 | 9.28933 | 80.06800 | 33332 ft | 444 kts | 182° |
| 2026-04-24 21:16 | 9.25873 | 80.06740 | 32658 ft | 447 kts | 181° |
| 2026-04-24 21:16 | 9.22764 | 80.06680 | 32021 ft | 448 kts | 181° |
| 2026-04-24 21:16 | 9.19638 | 80.06619 | 31349 ft | 450 kts | 181° |
| 2026-04-24 21:17 | 9.16502 | 80.06558 | 30764 ft | 450 kts | 180° |
| 2026-04-24 21:17 | 9.13382 | 80.06497 | 30338 ft | 446 kts | 180° |
| 2026-04-24 21:17 | 9.10290 | 80.06437 | 29877 ft | 444 kts | 180° |
| 2026-04-24 21:17 | 9.07207 | 80.06377 | 29343 ft | 441 kts | 180° |
| 2026-04-24 21:18 | 9.04150 | 80.06318 | 28865 ft | 438 kts | 180° |
| 2026-04-24 21:18 | 9.01159 | 80.06260 | 28389 ft | 434 kts | 180° |
| 2026-04-24 21:18 | 8.98145 | 80.06201 | 27924 ft | 431 kts | 180° |
| 2026-04-24 21:18 | 8.95158 | 80.06143 | 27461 ft | 428 kts | 179° |
| 2026-04-24 21:19 | 8.92195 | 80.06086 | 27011 ft | 425 kts | 179° |
| 2026-04-24 21:19 | 8.89244 | 80.06029 | 26531 ft | 423 kts | 180° |
| 2026-04-24 21:19 | 8.86304 | 80.05972 | 26048 ft | 421 kts | 180° |
| 2026-04-24 21:19 | 8.83381 | 80.05915 | 25592 ft | 419 kts | 179° |
| 2026-04-24 21:20 | 8.77570 | 80.05802 | 24664 ft | 416 kts | 179° |
| 2026-04-24 21:20 | 8.74711 | 80.05747 | 24197 ft | 417 kts | 179° |
| 2026-04-24 21:20 | 8.71751 | 80.05691 | 23718 ft | 436 kts | 179° |
| 2026-04-24 21:21 | 8.68682 | 80.05632 | 23197 ft | 445 kts | 180° |
| 2026-04-24 21:21 | 8.65590 | 80.05572 | 22670 ft | 443 kts | 180° |
| 2026-04-24 21:21 | 8.62526 | 80.05511 | 22169 ft | 438 kts | 179° |
| 2026-04-24 21:21 | 8.59498 | 80.05452 | 21685 ft | 433 kts | 179° |
| 2026-04-24 21:22 | 8.56517 | 80.05393 | 21201 ft | 429 kts | 179° |
| 2026-04-24 21:22 | 8.53528 | 80.05335 | 20708 ft | 426 kts | 179° |
| 2026-04-24 21:22 | 8.50573 | 80.05278 | 20230 ft | 423 kts | 179° |
| 2026-04-24 21:22 | 8.47627 | 80.05222 | 19741 ft | 436 kts | 179° |
| 2026-04-24 21:23 | 8.44567 | 80.05164 | 19239 ft | 442 kts | 179° |
| 2026-04-24 21:23 | 8.41502 | 80.05104 | 18748 ft | 439 kts | 179° |
| 2026-04-24 21:23 | 8.38468 | 80.05045 | 18254 ft | 434 kts | 179° |
| 2026-04-24 21:23 | 8.35468 | 80.04986 | 17715 ft | 429 kts | 180° |
| 2026-04-24 21:24 | 8.32499 | 80.04929 | 17190 ft | 425 kts | 180° |
| 2026-04-24 21:24 | 8.29548 | 80.04872 | 16695 ft | 422 kts | 180° |
| 2026-04-24 21:24 | 8.26627 | 80.04815 | 16200 ft | 419 kts | 180° |
| 2026-04-24 21:24 | 8.23718 | 80.04759 | 15698 ft | 416 kts | 180° |
| 2026-04-24 21:25 | 8.20875 | 80.04703 | 15209 ft | 413 kts | 180° |
| 2026-04-24 21:25 | 8.18016 | 80.04648 | 14722 ft | 409 kts | 179° |
| 2026-04-24 21:25 | 8.15178 | 80.04594 | 14207 ft | 407 kts | 180° |
| 2026-04-24 21:25 | 8.12359 | 80.04540 | 13665 ft | 404 kts | 180° |
| 2026-04-24 21:26 | 8.09555 | 80.04486 | 13121 ft | 401 kts | 180° |
| 2026-04-24 21:26 | 8.06778 | 80.04432 | 12643 ft | 398 kts | 180° |
| 2026-04-24 21:26 | 8.04019 | 80.04379 | 12212 ft | 395 kts | 180° |
| 2026-04-24 21:26 | 8.01280 | 80.04326 | 11851 ft | 393 kts | 180° |
| 2026-04-24 21:27 | 7.98557 | 80.04274 | 11400 ft | 390 kts | 180° |
| 2026-04-24 21:27 | 7.95852 | 80.04223 | 11113 ft | 387 kts | 180° |
| 2026-04-24 21:27 | 7.93199 | 80.04172 | 11020 ft | 386 kts | 180° |
| 2026-04-24 21:27 | 7.90512 | 80.04121 | 10858 ft | 386 kts | 180° |
| 2026-04-24 21:28 | 7.87829 | 80.04069 | 10626 ft | 385 kts | 180° |
| 2026-04-24 21:28 | 7.85157 | 80.04018 | 10146 ft | 383 kts | 180° |
| 2026-04-24 21:28 | 7.82501 | 80.03967 | 9722 ft | 380 kts | 179° |
| 2026-04-24 21:28 | 7.79867 | 80.03916 | 9278 ft | 378 kts | 180° |
| 2026-04-24 21:29 | 7.77245 | 80.03866 | 8863 ft | 375 kts | 180° |
| 2026-04-24 21:29 | 7.74640 | 80.03816 | 8453 ft | 374 kts | 180° |
| 2026-04-24 21:29 | 7.72087 | 80.03768 | 8059 ft | 372 kts | 180° |
| 2026-04-24 21:29 | 7.69506 | 80.03718 | 7654 ft | 370 kts | 179° |
| 2026-04-24 21:30 | 7.66942 | 80.03669 | 7241 ft | 368 kts | 180° |
| 2026-04-24 21:30 | 7.64392 | 80.03620 | 6833 ft | 366 kts | 180° |
| 2026-04-24 21:30 | 7.61853 | 80.03572 | 6425 ft | 364 kts | 179° |
| 2026-04-24 21:30 | 7.59332 | 80.03523 | 5964 ft | 361 kts | 180° |
| 2026-04-24 21:31 | 7.56828 | 80.03475 | 5531 ft | 359 kts | 179° |
| 2026-04-24 21:31 | 7.54342 | 80.03428 | 5121 ft | 356 kts | 180° |
| 2026-04-24 21:31 | 7.51904 | 80.03381 | 4721 ft | 354 kts | 180° |
| 2026-04-24 21:31 | 7.49454 | 80.03333 | 4321 ft | 351 kts | 179° |
| 2026-04-24 21:32 | 7.47040 | 80.03287 | 3959 ft | 340 kts | 180° |
| 2026-04-24 21:32 | 7.44730 | 80.03241 | 3735 ft | 325 kts | 179° |
| 2026-04-24 21:32 | 7.42517 | 80.03198 | 3533 ft | 311 kts | 180° |
| 2026-04-24 21:32 | 7.40404 | 80.03158 | 3383 ft | 297 kts | 180° |
| 2026-04-24 21:33 | 7.38393 | 80.03094 | 3234 ft | 281 kts | 186° |
| 2026-04-24 21:33 | 7.37162 | 80.02814 | 3084 ft | 269 kts | 199° |
| 2026-04-24 21:33 | 7.35140 | 80.01593 | 2787 ft | 245 kts | 218° |
| 2026-04-24 21:33 | 7.33881 | 80.00527 | 2635 ft | 228 kts | 219° |
| 2026-04-24 21:34 | 7.32692 | 79.99544 | 2404 ft | 215 kts | 216° |
| 2026-04-24 21:34 | 7.31532 | 79.98650 | 2145 ft | 206 kts | 216° |
| 2026-04-24 21:34 | 7.30406 | 79.97790 | 1789 ft | 201 kts | 215° |
| 2026-04-24 21:34 | 7.29309 | 79.96954 | 1533 ft | 191 kts | 216° |
| 2026-04-24 21:35 | 7.28314 | 79.96191 | 1512 ft | 168 kts | 216° |
| 2026-04-24 21:35 | 7.27439 | 79.95517 | 1506 ft | 150 kts | 216° |
| 2026-04-24 21:35 | 7.26643 | 79.94906 | 1529 ft | 144 kts | 216° |
| 2026-04-24 21:35 | 7.25832 | 79.94289 | 1507 ft | 145 kts | 214° |
| 2026-04-24 21:36 | 7.25051 | 79.93692 | 1407 ft | 142 kts | 215° |
| 2026-04-24 21:36 | 7.24271 | 79.93094 | 1230 ft | 140 kts | 215° |
| 2026-04-24 21:36 | 7.23495 | 79.92499 | 1040 ft | 140 kts | 214° |
| 2026-04-24 21:36 | 7.22722 | 79.91907 | 864 ft | 139 kts | 217° |
| 2026-04-24 21:37 | 7.21954 | 79.91317 | 679 ft | 139 kts | 214° |
| 2026-04-24 21:37 | 7.21184 | 79.90728 | 517 ft | 140 kts | 218° |
| 2026-04-24 21:37 | 7.20409 | 79.90134 | 355 ft | 140 kts | 216° |
| 2026-04-24 21:37 | 7.19653 | 79.89549 | 163 ft | 135 kts | 216° |
| 2026-04-24 21:38 | 7.18917 | 79.88982 | 34 ft | 130 kts | 217° |
| 2026-04-24 21:38 | 7.18382 | 79.88581 | 31 ft | 55 kts | 217° |
| 2026-04-24 21:38 | 7.18217 | 79.88454 | 31 ft | 25 kts | 217° |
| 2026-04-24 21:38 | 7.18083 | 79.88352 | 32 ft | 23 kts | 217° |
| 2026-04-24 21:39 | 7.17956 | 79.88254 | 33 ft | 22 kts | 217° |
| 2026-04-24 21:39 | 7.17880 | 79.88228 | 33 ft | 9 kts | 171° |
| 2026-04-24 21:39 | 7.17829 | 79.88268 | 33 ft | 11 kts | 130° |
| 2026-04-24 21:39 | 7.17795 | 79.88327 | 32 ft | 9 kts | 99° |
| 2026-04-24 21:40 | 7.17828 | 79.88381 | 31 ft | 10 kts | 34° |
| 2026-04-24 21:40 | 7.17855 | 79.88427 | 31 ft | 7 kts | 89° |
| 2026-04-24 21:40 | 7.17830 | 79.88473 | 31 ft | 7 kts | 125° |
| 2026-04-24 21:40 | 7.17805 | 79.88480 | 31 ft | 1 kts | 197° |
| 2026-04-24 21:41 | 7.17796 | 79.88472 | 31 ft | 2 kts | 217° |
| 2026-04-24 21:41 | 7.17778 | 79.88458 | 31 ft | 4 kts | 217° |
| 2026-04-24 21:41 | 7.17756 | 79.88441 | 31 ft | 3 kts | 217° |
| 2026-04-24 21:41 | 7.17738 | 79.88428 | 31 ft | 4 kts | 217° |
| 2026-04-24 21:42 | 7.17732 | 79.88423 | 31 ft | 2 kts | 217° |